createdAt,value
2022-11-29T00:01:58.580Z,64.13
2022-11-29T00:04:27.832Z,64.00
2022-11-29T00:06:56.844Z,64.17
2022-11-29T00:09:26.365Z,64.46
2022-11-29T00:12:13.892Z,64.33
2022-11-29T00:14:43.808Z,64.22
2022-11-29T00:17:13.302Z,64.60
2022-11-29T00:19:42.732Z,64.76
2022-11-29T00:22:11.875Z,64.67
2022-11-29T00:24:41.386Z,64.79
2022-11-29T00:27:10.792Z,64.91
2022-11-29T00:29:39.765Z,64.96
2022-11-29T00:32:08.965Z,65.02
2022-11-29T00:34:39.002Z,65.29
2022-11-29T00:37:08.131Z,65.17
2022-11-29T00:39:37.603Z,65.13
2022-11-29T00:42:06.736Z,65.13
2022-11-29T00:44:35.899Z,65.14
2022-11-29T00:47:05.453Z,65.17
2022-11-29T00:49:34.549Z,64.96
2022-11-29T00:52:03.588Z,64.80
2022-11-29T00:54:32.886Z,64.66
2022-11-29T00:57:02.090Z,64.50
2022-11-29T00:59:31.555Z,64.06
2022-11-29T01:02:00.653Z,64.35
2022-11-29T01:04:29.597Z,64.12
2022-11-29T01:06:58.551Z,63.34
2022-11-29T01:09:27.617Z,63.47
2022-11-29T01:11:56.715Z,63.23
2022-11-29T01:14:26.074Z,63.45
2022-11-29T01:16:55.364Z,63.68
2022-11-29T01:19:24.425Z,63.80
2022-11-29T01:21:53.486Z,63.45
2022-11-29T01:24:23.638Z,63.16
2022-11-29T01:26:52.886Z,63.20
2022-11-29T01:29:21.756Z,63.24
2022-11-29T01:31:50.783Z,63.64
2022-11-29T01:34:19.916Z,63.45
2022-11-29T01:36:49.110Z,63.09
2022-11-29T01:39:18.275Z,62.58
2022-11-29T01:41:47.458Z,63.13
2022-11-29T01:44:16.533Z,63.08
2022-11-29T01:46:48.854Z,62.76
2022-11-29T01:49:40.477Z,62.71
2022-11-29T01:52:33.420Z,62.73
2022-11-29T01:55:08.127Z,62.43
2022-11-29T01:57:41.730Z,62.61
2022-11-29T02:00:19.399Z,62.81
2022-11-29T02:03:05.206Z,63.20
2022-11-29T02:05:35.152Z,63.37
2022-11-29T02:08:05.008Z,62.73
2022-11-29T02:10:51.554Z,62.73
2022-11-29T02:13:49.465Z,62.94
2022-11-29T02:16:31.022Z,62.67
2022-11-29T02:19:28.418Z,62.17
2022-11-29T02:22:34.576Z,61.86
2022-11-29T02:25:18.422Z,62.39
2022-11-29T02:28:35.265Z,62.74
2022-11-29T02:31:24.941Z,62.04
2022-11-29T02:34:31.107Z,62.36
2022-11-29T02:37:36.292Z,62.23
2022-11-29T02:40:38.675Z,62.19
2022-11-29T02:43:46.407Z,62.18
2022-11-29T02:46:48.352Z,62.04
2022-11-29T02:50:00.358Z,62.32
2022-11-29T02:52:54.403Z,62.42
2022-11-29T02:55:42.913Z,62.28
2022-11-29T02:58:28.424Z,62.06
2022-11-29T03:02:06.269Z,62.47
2022-11-29T03:05:03.136Z,62.37
2022-11-29T03:08:04.654Z,62.09
2022-11-29T03:11:29.276Z,61.78
2022-11-29T03:14:16.706Z,61.98
2022-11-29T03:17:19.508Z,61.95
2022-11-29T03:20:25.131Z,62.00
2022-11-29T03:23:51.212Z,62.43
2022-11-29T03:26:46.559Z,62.00
2022-11-29T03:29:34.361Z,62.00
2022-11-29T03:32:36.490Z,62.11
2022-11-29T03:35:34.449Z,62.15
2022-11-29T03:38:28.097Z,62.21
2022-11-29T03:41:21.438Z,62.19
2022-11-29T03:44:14.586Z,62.29
2022-11-29T03:47:25.418Z,62.31
2022-11-29T03:50:06.720Z,62.33
2022-11-29T03:52:57.515Z,62.16
2022-11-29T03:56:00.185Z,62.06
2022-11-29T03:58:51.932Z,61.77
2022-11-29T04:01:36.937Z,61.74
2022-11-29T04:04:21.967Z,61.41
2022-11-29T04:07:14.854Z,61.47
2022-11-29T04:10:05.413Z,61.54
2022-11-29T04:13:10.564Z,61.46
2022-11-29T04:16:16.363Z,61.59
2022-11-29T04:19:08.521Z,61.37
2022-11-29T04:22:20.996Z,61.24
2022-11-29T04:25:09.040Z,60.31
2022-11-29T04:27:50.597Z,60.86
2022-11-29T04:30:29.426Z,60.68
2022-11-29T04:33:45.926Z,61.07
2022-11-29T04:36:39.924Z,61.23
2022-11-29T04:39:29.472Z,61.11
2022-11-29T04:42:22.165Z,61.45
2022-11-29T04:45:06.439Z,61.49
2022-11-29T04:48:34.126Z,61.42
2022-11-29T04:51:31.277Z,61.61
2022-11-29T04:54:24.452Z,61.57
2022-11-29T04:57:14.336Z,61.30
2022-11-29T05:00:07.548Z,60.99
2022-11-29T05:02:49.780Z,60.86
2022-11-29T05:05:45.229Z,60.70
2022-11-29T05:08:40.228Z,60.95
2022-11-29T05:11:44.869Z,61.15
2022-11-29T05:15:06.759Z,60.72
2022-11-29T05:18:30.938Z,60.73
2022-11-29T05:21:20.787Z,60.49
2022-11-29T05:24:00.999Z,61.00
2022-11-29T05:27:18.407Z,61.21
2022-11-29T05:30:12.437Z,60.79
2022-11-29T05:32:56.567Z,60.77
2022-11-29T05:35:52.431Z,60.89
2022-11-29T05:39:07.079Z,60.95
2022-11-29T05:41:53.810Z,60.55
2022-11-29T05:44:40.625Z,60.49
2022-11-29T05:47:16.270Z,60.61
2022-11-29T05:50:06.959Z,60.79
2022-11-29T05:52:50.458Z,60.18
2022-11-29T05:55:47.309Z,60.05
2022-11-29T05:58:30.528Z,60.16
2022-11-29T06:01:23.264Z,60.26
2022-11-29T06:04:15.319Z,59.99
2022-11-29T06:07:08.425Z,60.21
2022-11-29T06:12:38.614Z,59.88
2022-11-29T06:15:59.268Z,60.15
2022-11-29T06:18:43.316Z,59.85
2022-11-29T06:21:37.857Z,59.62
2022-11-29T06:24:51.838Z,59.72
2022-11-29T06:27:38.786Z,59.62
2022-11-29T06:30:17.513Z,60.08
2022-11-29T06:33:18.285Z,60.64
2022-11-29T06:36:30.283Z,61.07
2022-11-29T06:38:59.783Z,60.56
2022-11-29T06:41:29.576Z,61.12
2022-11-29T06:43:59.167Z,61.57
2022-11-29T06:46:31.954Z,62.05
2022-11-29T06:49:28.409Z,61.84
2022-11-29T06:52:24.416Z,61.95
2022-11-29T06:55:49.840Z,62.12
2022-11-29T06:58:36.179Z,62.22
2022-11-29T07:01:45.509Z,62.17
2022-11-29T07:04:40.046Z,62.20
2022-11-29T07:07:27.956Z,62.06
2022-11-29T07:10:00.718Z,62.07
2022-11-29T07:12:30.373Z,62.49
2022-11-29T07:15:00.131Z,62.93
2022-11-29T07:17:59.841Z,63.02
2022-11-29T07:21:24.190Z,62.88
2022-11-29T07:24:20.645Z,62.78
2022-11-29T07:27:29.217Z,62.61
2022-11-29T07:30:22.193Z,62.40
2022-11-29T07:33:46.003Z,62.45
2022-11-29T07:37:02.712Z,62.27
2022-11-29T07:40:14.919Z,62.20
2022-11-29T07:43:11.262Z,62.17
2022-11-29T07:45:42.137Z,62.09
2022-11-29T07:48:15.066Z,62.08
2022-11-29T07:50:47.084Z,61.93
2022-11-29T07:53:23.043Z,61.86
2022-11-29T07:55:52.728Z,61.82
2022-11-29T07:58:22.325Z,62.11
2022-11-29T08:00:51.468Z,62.16
2022-11-29T08:03:20.621Z,62.27
2022-11-29T08:05:49.922Z,61.98
2022-11-29T08:08:19.940Z,62.02
2022-11-29T08:10:49.456Z,61.82
2022-11-29T08:13:22.536Z,61.99
2022-11-29T08:15:52.126Z,62.18
2022-11-29T08:18:21.342Z,62.45
2022-11-29T08:20:50.533Z,62.33
2022-11-29T08:23:19.484Z,62.69
2022-11-29T08:25:49.527Z,62.87
2022-11-29T08:28:19.096Z,62.60
2022-11-29T08:30:48.160Z,62.56
2022-11-29T08:33:17.292Z,62.92
2022-11-29T08:35:46.737Z,63.14
2022-11-29T08:38:15.938Z,63.24
2022-11-29T08:40:44.980Z,63.17
2022-11-29T08:43:14.817Z,62.68
2022-11-29T08:45:43.893Z,62.70
2022-11-29T08:48:15.696Z,62.77
2022-11-29T08:50:44.882Z,62.36
2022-11-29T08:53:32.622Z,62.31
2022-11-29T08:56:12.024Z,62.39
2022-11-29T08:58:51.898Z,62.73
2022-11-29T09:01:21.919Z,62.90
2022-11-29T09:04:08.732Z,62.70
2022-11-29T09:06:46.699Z,62.52
2022-11-29T09:09:15.847Z,62.73
2022-11-29T09:11:49.224Z,62.80
2022-11-29T09:14:19.630Z,62.70
2022-11-29T09:16:48.686Z,62.62
2022-11-29T09:19:18.513Z,62.35
2022-11-29T09:21:47.604Z,62.33
2022-11-29T09:24:17.284Z,62.48
2022-11-29T09:26:49.365Z,62.22
2022-11-29T09:29:19.785Z,62.10
2022-11-29T09:31:49.085Z,62.33
2022-11-29T09:34:22.842Z,62.51
2022-11-29T09:36:51.753Z,62.75
2022-11-29T09:39:20.999Z,62.95
2022-11-29T09:42:16.236Z,63.04
2022-11-29T09:44:57.591Z,63.23
2022-11-29T09:47:54.807Z,63.01
2022-11-29T09:50:49.775Z,62.62
2022-11-29T09:53:30.864Z,62.93
2022-11-29T09:56:32.642Z,63.11
2022-11-29T09:59:13.925Z,62.94
2022-11-29T10:01:54.420Z,62.46
2022-11-29T10:04:31.405Z,62.40
2022-11-29T10:07:18.023Z,62.18
2022-11-29T10:10:03.175Z,62.20
2022-11-29T10:13:01.926Z,62.42
2022-11-29T10:15:41.659Z,62.68
2022-11-29T10:18:37.500Z,62.67
2022-11-29T10:21:30.060Z,62.98
2022-11-29T10:24:12.544Z,63.10
2022-11-29T10:26:44.574Z,63.10
2022-11-29T10:29:18.166Z,62.98
2022-11-29T10:31:50.795Z,62.88
2022-11-29T10:34:25.144Z,62.64
2022-11-29T10:37:03.876Z,63.01
2022-11-29T10:40:14.594Z,63.19
2022-11-29T10:42:50.377Z,62.86
2022-11-29T10:45:22.921Z,63.05
2022-11-29T10:47:56.807Z,63.27
2022-11-29T10:50:34.818Z,63.10
2022-11-29T10:53:13.193Z,62.26
2022-11-29T10:56:17.142Z,62.18
2022-11-29T10:59:10.493Z,62.05
2022-11-29T11:01:44.134Z,62.01
2022-11-29T11:04:48.500Z,62.10
2022-11-29T11:07:37.492Z,61.88
2022-11-29T11:10:31.955Z,61.96
2022-11-29T11:13:21.869Z,62.05
2022-11-29T11:15:51.324Z,62.00
2022-11-29T11:18:27.900Z,62.30
2022-11-29T11:21:05.997Z,62.40
2022-11-29T11:23:42.752Z,62.46
2022-11-29T11:26:16.915Z,62.90
2022-11-29T11:29:01.201Z,62.90
2022-11-29T11:31:40.973Z,62.97
2022-11-29T11:34:30.583Z,62.91
2022-11-29T11:37:18.668Z,62.65
2022-11-29T11:39:51.936Z,62.20
2022-11-29T11:42:39.189Z,61.89
2022-11-29T11:45:13.985Z,61.82
2022-11-29T11:48:00.403Z,61.79
2022-11-29T11:50:41.788Z,61.97
2022-11-29T11:53:26.580Z,62.14
2022-11-29T11:56:12.419Z,62.38
2022-11-29T11:58:53.336Z,62.59
2022-11-29T12:01:41.546Z,62.55
2022-11-29T12:04:27.293Z,62.83
2022-11-29T12:07:51.954Z,62.90
2022-11-29T12:10:26.845Z,63.33
2022-11-29T12:12:58.716Z,63.61
2022-11-29T12:15:41.814Z,63.62
2022-11-29T12:18:32.304Z,63.68
2022-11-29T12:21:28.904Z,63.63
2022-11-29T12:24:48.025Z,62.58
2022-11-29T12:27:17.562Z,63.16
2022-11-29T12:29:46.854Z,63.41
2022-11-29T12:32:56.591Z,63.12
2022-11-29T12:35:54.771Z,61.95
2022-11-29T12:39:06.823Z,61.63
2022-11-29T12:42:02.948Z,62.04
2022-11-29T12:45:02.016Z,62.93
2022-11-29T12:47:55.057Z,63.09
2022-11-29T12:50:31.941Z,62.73
2022-11-29T12:53:23.986Z,62.38
2022-11-29T12:56:43.126Z,62.10
2022-11-29T12:59:47.402Z,62.22
2022-11-29T13:02:50.907Z,62.26
2022-11-29T13:05:57.651Z,62.21
2022-11-29T13:08:50.784Z,61.96
2022-11-29T13:11:31.896Z,61.99
2022-11-29T13:14:41.097Z,61.82
2022-11-29T13:17:12.889Z,61.98
2022-11-29T13:19:57.328Z,61.94
2022-11-29T13:22:52.214Z,61.82
2022-11-29T13:25:30.626Z,61.84
2022-11-29T13:28:12.313Z,62.07
2022-11-29T13:30:42.303Z,62.18
2022-11-29T13:33:32.647Z,61.98
2022-11-29T13:36:34.789Z,61.58
2022-11-29T13:39:38.336Z,61.48
2022-11-29T13:42:25.285Z,61.71
2022-11-29T13:45:25.549Z,61.93
2022-11-29T13:48:01.259Z,61.87
2022-11-29T13:50:43.527Z,61.07
2022-11-29T13:53:25.589Z,60.05
2022-11-29T13:56:02.837Z,60.25
2022-11-29T13:58:40.571Z,59.63
2022-11-29T14:01:15.571Z,60.21
2022-11-29T14:04:03.113Z,60.19
2022-11-29T14:06:42.445Z,59.74
2022-11-29T14:09:48.897Z,59.82
2022-11-29T14:12:37.867Z,60.27
2022-11-29T14:15:32.696Z,60.14
2022-11-29T14:18:10.547Z,60.36
2022-11-29T14:20:45.128Z,60.07
2022-11-29T14:23:41.686Z,59.87
2022-11-29T14:26:10.915Z,59.94
2022-11-29T14:28:43.074Z,60.04
2022-11-29T14:31:12.556Z,60.24
2022-11-29T14:34:17.916Z,60.13
2022-11-29T14:37:08.323Z,60.06
2022-11-29T14:39:50.530Z,60.16
2022-11-29T14:42:26.728Z,60.43
2022-11-29T14:45:05.661Z,60.79
2022-11-29T14:47:51.119Z,60.90
2022-11-29T14:50:39.962Z,61.12
2022-11-29T14:53:31.696Z,61.20
2022-11-29T14:56:31.879Z,61.57
2022-11-29T14:59:49.590Z,61.76
2022-11-29T15:02:57.786Z,60.99
2022-11-29T15:05:49.139Z,60.76
2022-11-29T15:09:22.202Z,61.17
2022-11-29T15:12:03.354Z,61.56
2022-11-29T15:15:02.966Z,61.80
2022-11-29T15:17:57.329Z,61.75
2022-11-29T15:20:46.772Z,61.87
2022-11-29T15:23:21.310Z,62.33
2022-11-29T15:25:55.473Z,62.34
2022-11-29T15:28:30.261Z,62.27
2022-11-29T15:31:11.188Z,62.00
2022-11-29T15:33:47.518Z,61.94
2022-11-29T15:36:23.994Z,61.94
2022-11-29T15:38:56.937Z,61.93
2022-11-29T15:41:36.585Z,61.66
2022-11-29T15:44:08.772Z,61.47
2022-11-29T15:46:38.253Z,61.66
2022-11-29T15:49:33.201Z,61.73
2022-11-29T15:52:14.439Z,61.69
2022-11-29T15:54:56.797Z,61.29
2022-11-29T15:57:43.918Z,61.33
2022-11-29T16:00:24.264Z,61.46
2022-11-29T16:03:05.788Z,61.29
2022-11-29T16:05:39.276Z,61.09
2022-11-29T16:08:22.395Z,60.90
2022-11-29T16:10:54.403Z,60.75
2022-11-29T16:13:44.246Z,60.51
2022-11-29T16:16:22.869Z,60.66
2022-11-29T16:18:53.090Z,60.76
2022-11-29T16:21:28.830Z,60.80
2022-11-29T16:23:59.735Z,60.96
2022-11-29T16:26:39.549Z,61.23
2022-11-29T16:29:22.441Z,61.44
2022-11-29T16:31:52.306Z,61.36
2022-11-29T16:34:27.480Z,61.43
2022-11-29T16:37:20.637Z,61.72
2022-11-29T16:39:54.437Z,61.68
2022-11-29T16:42:29.300Z,61.58
2022-11-29T16:45:24.750Z,61.59
2022-11-29T16:48:01.675Z,61.50
2022-11-29T16:50:35.941Z,61.27
2022-11-29T16:53:41.259Z,60.96
2022-11-29T16:56:18.555Z,61.23
2022-11-29T16:59:25.666Z,61.39
2022-11-29T17:01:47.286Z,61.41
2022-11-29T17:04:24.418Z,61.23
2022-11-29T17:06:58.796Z,61.10
2022-11-29T17:09:35.665Z,61.05
2022-11-29T17:12:05.040Z,61.32
2022-11-29T17:14:34.441Z,61.46
2022-11-29T17:17:03.489Z,61.36
2022-11-29T17:19:33.307Z,61.57
2022-11-29T17:22:02.759Z,61.60
2022-11-29T17:24:32.055Z,61.59
2022-11-29T17:27:01.147Z,61.65
2022-11-29T17:29:30.457Z,61.45
2022-11-29T17:31:59.924Z,61.19
2022-11-29T17:34:28.861Z,61.05
2022-11-29T17:36:58.458Z,61.00
2022-11-29T17:39:27.720Z,61.18
2022-11-29T17:41:56.786Z,61.50
2022-11-29T17:44:25.875Z,61.34
2022-11-29T17:46:55.000Z,61.28
2022-11-29T17:49:24.137Z,61.40
2022-11-29T17:51:53.774Z,61.45
2022-11-29T17:54:26.148Z,61.32
2022-11-29T17:56:56.473Z,61.24
2022-11-29T17:59:25.775Z,61.34
2022-11-29T18:01:57.378Z,61.61
2022-11-29T18:04:26.671Z,61.64
2022-11-29T18:06:55.781Z,61.76
2022-11-29T18:09:24.863Z,61.96
2022-11-29T18:11:54.045Z,62.00
2022-11-29T18:14:25.096Z,61.95
2022-11-29T18:16:54.389Z,61.90
2022-11-29T18:19:25.065Z,61.90
2022-11-29T18:21:54.305Z,61.99
2022-11-29T18:24:23.440Z,62.03
2022-11-29T18:26:52.801Z,62.16
2022-11-29T18:29:22.506Z,62.14
2022-11-29T18:31:51.849Z,62.28
2022-11-29T18:34:20.997Z,62.18
2022-11-29T18:36:50.886Z,62.28
2022-11-29T18:39:24.412Z,62.40
2022-11-29T18:41:53.781Z,62.53
2022-11-29T18:44:30.320Z,62.72
2022-11-29T18:46:59.794Z,62.60
2022-11-29T18:49:28.840Z,62.42
2022-11-29T18:51:58.242Z,62.50
2022-11-29T18:54:27.436Z,62.48
2022-11-29T18:56:56.654Z,62.50
2022-11-29T18:59:26.023Z,62.52
2022-11-29T19:01:54.984Z,62.49
2022-11-29T19:04:24.507Z,62.44
2022-11-29T19:06:53.805Z,62.45
2022-11-29T19:09:25.536Z,62.49
2022-11-29T19:11:54.858Z,62.45
2022-11-29T19:14:23.874Z,62.41
2022-11-29T19:16:53.050Z,62.31
2022-11-29T19:19:22.132Z,62.33
2022-11-29T19:21:51.304Z,62.49
2022-11-29T19:24:21.042Z,62.50
2022-11-29T19:26:50.902Z,62.53
2022-11-29T19:29:19.891Z,62.67
2022-11-29T19:31:49.113Z,62.70
2022-11-29T19:34:18.346Z,62.71
2022-11-29T19:36:47.503Z,62.62
2022-11-29T19:39:18.619Z,62.52
2022-11-29T19:41:49.562Z,62.56
2022-11-29T19:44:18.627Z,62.35
2022-11-29T19:46:50.101Z,62.36
2022-11-29T19:49:19.149Z,62.31
2022-11-29T19:51:48.495Z,62.00
2022-11-29T19:54:17.800Z,62.06
2022-11-29T19:56:47.017Z,62.20
2022-11-29T19:59:16.354Z,62.33
2022-11-29T20:01:45.501Z,62.41
2022-11-29T20:04:17.857Z,62.40
2022-11-29T20:06:47.542Z,62.40
2022-11-29T20:09:19.624Z,62.50
2022-11-29T20:11:48.819Z,62.55
2022-11-29T20:14:18.177Z,62.64
2022-11-29T20:16:47.493Z,62.74
2022-11-29T20:19:19.001Z,62.67
2022-11-29T20:21:51.273Z,62.84
2022-11-29T20:24:21.168Z,62.90
2022-11-29T20:26:51.407Z,62.89
2022-11-29T20:29:21.035Z,62.83
2022-11-29T20:31:51.343Z,62.63
2022-11-29T20:34:22.054Z,62.62
2022-11-29T20:37:09.486Z,62.58
2022-11-29T20:40:10.804Z,62.66
2022-11-29T20:42:55.281Z,62.47
2022-11-29T20:45:25.798Z,62.61
2022-11-29T20:48:21.710Z,62.21
2022-11-29T20:51:03.964Z,62.00
2022-11-29T20:53:39.663Z,61.96
2022-11-29T20:56:11.070Z,61.82
2022-11-29T20:58:43.387Z,62.17
2022-11-29T21:01:12.646Z,62.11
2022-11-29T21:03:42.235Z,62.06
2022-11-29T21:06:11.533Z,62.12
2022-11-29T21:08:40.717Z,62.27
2022-11-29T21:11:12.011Z,62.38
2022-11-29T21:13:41.771Z,62.09
2022-11-29T21:16:13.966Z,62.26
2022-11-29T21:18:43.597Z,62.16
2022-11-29T21:21:26.825Z,62.19
2022-11-29T21:24:55.132Z,62.14
2022-11-29T21:27:34.009Z,62.24
2022-11-29T21:30:07.240Z,62.15
2022-11-29T21:32:37.182Z,62.07
2022-11-29T21:35:06.490Z,61.53
2022-11-29T21:37:35.464Z,61.33
2022-11-29T21:40:05.450Z,61.69
2022-11-29T21:42:34.549Z,61.96
2022-11-29T21:45:06.507Z,62.14
2022-11-29T21:47:38.270Z,61.87
2022-11-29T21:50:08.385Z,61.59
2022-11-29T21:52:37.517Z,61.61
2022-11-29T21:55:07.624Z,61.39
2022-11-29T21:57:36.976Z,61.26
2022-11-29T22:00:07.625Z,61.15
2022-11-29T22:02:36.861Z,60.96
2022-11-29T22:05:06.308Z,61.28
2022-11-29T22:07:35.694Z,61.87
2022-11-29T22:10:12.941Z,61.59
2022-11-29T22:12:51.248Z,61.37
2022-11-29T22:15:24.844Z,61.34
2022-11-29T22:17:54.713Z,61.12
2022-11-29T22:20:24.121Z,61.20
2022-11-29T22:22:58.452Z,61.58
2022-11-29T22:25:27.969Z,61.60
2022-11-29T22:27:57.108Z,61.16
2022-11-29T22:30:26.299Z,61.08
2022-11-29T22:32:58.502Z,61.16
2022-11-29T22:35:27.686Z,61.10
2022-11-29T22:37:57.405Z,60.97
2022-11-29T22:40:26.596Z,60.91
2022-11-29T22:42:55.830Z,60.64
2022-11-29T22:45:24.945Z,60.34
2022-11-29T22:47:54.082Z,60.05
2022-11-29T22:50:23.235Z,60.48
2022-11-29T22:52:54.511Z,60.45
2022-11-29T22:55:23.519Z,60.78
2022-11-29T22:57:55.714Z,60.59
2022-11-29T23:00:25.079Z,60.48
2022-11-29T23:02:59.015Z,60.34
2022-11-29T23:05:32.284Z,60.45
2022-11-29T23:08:02.049Z,60.24
2022-11-29T23:10:31.341Z,60.30
2022-11-29T23:13:00.523Z,60.09
2022-11-29T23:15:29.540Z,60.34
2022-11-29T23:17:58.734Z,60.54
2022-11-29T23:20:27.714Z,60.36
2022-11-29T23:22:57.029Z,60.18
2022-11-29T23:25:26.201Z,59.95
2022-11-29T23:27:57.398Z,59.87
2022-11-29T23:30:26.663Z,59.90
2022-11-29T23:32:55.687Z,59.89
2022-11-29T23:35:24.925Z,59.94
2022-11-29T23:37:53.983Z,60.02
2022-11-29T23:40:23.118Z,59.90
2022-11-29T23:42:55.298Z,60.19
2022-11-29T23:45:24.347Z,60.79
2022-11-29T23:47:53.705Z,61.00
2022-11-29T23:50:23.070Z,61.17
2022-11-29T23:52:58.444Z,61.14
2022-11-29T23:55:28.382Z,61.23
2022-11-29T23:57:57.663Z,61.36
